createdAt,value
2023-01-13T00:01:57.341Z,4.10
2023-01-13T00:04:27.673Z,3.72
2023-01-13T00:06:58.097Z,4.30
2023-01-13T00:09:28.875Z,3.97
2023-01-13T00:11:59.170Z,4.32
2023-01-13T00:14:31.447Z,4.05
2023-01-13T00:17:01.732Z,3.92
2023-01-13T00:19:34.416Z,4.15
2023-01-13T00:22:04.626Z,3.45
2023-01-13T00:24:35.275Z,4.13
2023-01-13T00:27:05.669Z,3.42
2023-01-13T00:29:36.234Z,3.58
2023-01-13T00:32:09.579Z,3.17
2023-01-13T00:34:40.416Z,3.10
2023-01-13T00:37:14.636Z,3.65
2023-01-13T00:39:45.680Z,3.65
2023-01-13T00:42:34.038Z,2.95
2023-01-13T00:45:04.622Z,3.45
2023-01-13T00:47:34.947Z,2.95
2023-01-13T00:50:05.506Z,3.55
2023-01-13T00:52:36.639Z,3.53
2023-01-13T00:55:07.435Z,3.17
2023-01-13T00:57:38.535Z,3.47
2023-01-13T01:00:09.329Z,3.50
2023-01-13T01:02:39.578Z,3.00
2023-01-13T01:05:10.403Z,3.05
2023-01-13T01:07:40.633Z,2.83
2023-01-13T01:10:11.469Z,2.90
2023-01-13T01:12:41.716Z,2.65
2023-01-13T01:15:12.875Z,3.13
2023-01-13T01:17:43.170Z,3.08
2023-01-13T01:20:14.356Z,2.63
2023-01-13T01:22:44.673Z,3.28
2023-01-13T01:25:15.071Z,2.60
2023-01-13T01:27:45.247Z,2.92
2023-01-13T01:30:16.218Z,2.72
2023-01-13T01:32:46.491Z,2.90
2023-01-13T01:35:16.884Z,2.97
2023-01-13T01:37:47.337Z,2.95
2023-01-13T01:40:17.748Z,3.15
2023-01-13T01:43:05.947Z,3.33
2023-01-13T01:45:36.392Z,3.08
2023-01-13T01:48:10.081Z,2.80
2023-01-13T01:50:41.241Z,2.85
2023-01-13T01:53:21.941Z,2.92
2023-01-13T01:55:52.889Z,2.90
2023-01-13T01:58:52.737Z,2.92
2023-01-13T02:01:23.404Z,2.80
2023-01-13T02:03:59.852Z,3.28
2023-01-13T02:06:32.093Z,3.28
2023-01-13T02:09:03.956Z,2.55
2023-01-13T02:11:56.527Z,3.28
2023-01-13T02:14:30.392Z,2.80
2023-01-13T02:17:12.981Z,2.75
2023-01-13T02:20:01.233Z,2.72
2023-01-13T02:22:49.574Z,2.85
2023-01-13T02:25:35.253Z,2.78
2023-01-13T02:28:23.741Z,2.88
2023-01-13T02:31:29.550Z,2.80
2023-01-13T02:34:11.873Z,3.10
2023-01-13T02:36:51.186Z,2.78
2023-01-13T02:39:30.253Z,2.83
2023-01-13T02:42:34.683Z,2.92
2023-01-13T02:45:23.648Z,3.33
2023-01-13T02:47:57.597Z,3.15
2023-01-13T02:50:55.873Z,3.28
2023-01-13T02:53:55.833Z,3.15
2023-01-13T02:56:28.827Z,2.88
2023-01-13T02:59:01.352Z,3.22
2023-01-13T03:01:31.973Z,3.10
2023-01-13T03:04:17.636Z,3.20
2023-01-13T03:07:04.263Z,3.30
2023-01-13T03:09:45.239Z,3.08
2023-01-13T03:12:34.630Z,3.40
2023-01-13T03:15:31.011Z,2.90
2023-01-13T03:18:27.609Z,4.25
2023-01-13T03:21:08.820Z,5.72
2023-01-13T03:24:05.842Z,5.28
2023-01-13T03:26:45.183Z,6.05
2023-01-13T03:29:32.766Z,6.15
2023-01-13T03:32:37.925Z,6.55
2023-01-13T03:35:19.904Z,6.60
2023-01-13T03:37:56.961Z,6.50
2023-01-13T03:40:34.346Z,6.40
2023-01-13T03:43:29.247Z,6.47
2023-01-13T03:46:05.500Z,6.55
2023-01-13T03:48:39.685Z,6.97
2023-01-13T03:51:14.617Z,6.07
2023-01-13T03:53:55.930Z,6.22
2023-01-13T03:56:33.641Z,6.15
2023-01-13T03:59:08.576Z,6.47
2023-01-13T04:02:01.145Z,6.85
2023-01-13T04:04:37.181Z,5.90
2023-01-13T04:07:42.352Z,6.03
2023-01-13T04:10:14.321Z,6.00
2023-01-13T04:13:02.278Z,5.80
2023-01-13T04:15:36.814Z,6.45
2023-01-13T04:18:30.258Z,6.50
2023-01-13T04:21:03.520Z,6.10
2023-01-13T04:23:34.628Z,6.43
2023-01-13T04:26:04.939Z,5.60
2023-01-13T04:28:36.676Z,5.75
2023-01-13T04:31:07.062Z,5.57
2023-01-13T04:33:37.813Z,6.50
2023-01-13T04:36:08.433Z,5.85
2023-01-13T04:38:39.264Z,5.55
2023-01-13T04:41:09.614Z,5.97
2023-01-13T04:43:39.904Z,5.75
2023-01-13T04:46:10.160Z,5.35
2023-01-13T04:48:41.009Z,5.43
2023-01-13T04:51:11.163Z,5.82
2023-01-13T04:53:41.521Z,4.97
2023-01-13T04:56:11.707Z,5.28
2023-01-13T04:58:42.664Z,5.32
2023-01-13T05:01:13.028Z,5.40
2023-01-13T05:03:44.419Z,4.97
2023-01-13T05:06:14.706Z,5.68
2023-01-13T05:08:45.028Z,5.22
2023-01-13T05:11:33.257Z,5.28
2023-01-13T05:14:21.939Z,5.50
2023-01-13T05:17:03.716Z,5.55
2023-01-13T05:19:37.318Z,5.40
2023-01-13T05:22:27.660Z,5.30
2023-01-13T05:25:16.097Z,4.95
2023-01-13T05:27:46.350Z,4.90
2023-01-13T05:30:17.445Z,5.15
2023-01-13T05:32:47.794Z,5.65
2023-01-13T05:35:18.679Z,4.88
2023-01-13T05:37:49.923Z,5.20
2023-01-13T05:40:39.572Z,5.03
2023-01-13T05:43:43.204Z,5.85
2023-01-13T05:46:13.557Z,5.40
2023-01-13T05:48:45.691Z,5.30
2023-01-13T05:51:16.289Z,4.90
2023-01-13T05:53:46.517Z,4.90
2023-01-13T05:56:19.023Z,4.68
2023-01-13T05:58:49.706Z,4.47
2023-01-13T06:01:20.010Z,4.45
2023-01-13T06:03:50.309Z,4.45
2023-01-13T06:06:20.615Z,4.70
2023-01-13T06:08:51.255Z,4.90
2023-01-13T06:11:21.599Z,5.40
2023-01-13T06:13:51.863Z,4.75
2023-01-13T06:16:22.249Z,4.30
2023-01-13T06:18:52.495Z,4.13
2023-01-13T06:21:22.698Z,4.25
2023-01-13T06:23:52.920Z,4.50
2023-01-13T06:26:25.429Z,4.70
2023-01-13T06:28:55.662Z,4.55
2023-01-13T06:31:26.761Z,4.00
2023-01-13T06:34:04.046Z,4.65
2023-01-13T06:36:39.724Z,4.25
2023-01-13T06:39:13.886Z,4.72
2023-01-13T06:42:02.215Z,4.95
2023-01-13T06:44:32.784Z,4.28
2023-01-13T06:47:03.130Z,4.28
2023-01-13T06:49:33.421Z,4.70
2023-01-13T06:52:03.694Z,4.40
2023-01-13T06:54:33.982Z,4.15
2023-01-13T06:57:04.996Z,4.85
2023-01-13T06:59:38.491Z,4.53
2023-01-13T07:02:08.786Z,4.40
2023-01-13T07:04:39.049Z,4.22
2023-01-13T07:07:14.019Z,3.95
2023-01-13T07:09:44.214Z,3.83
2023-01-13T07:12:15.285Z,3.33
2023-01-13T07:15:03.397Z,3.30
2023-01-13T07:17:33.637Z,3.72
2023-01-13T07:20:03.864Z,3.50
2023-01-13T07:22:34.061Z,3.25
2023-01-13T07:25:04.314Z,3.53
2023-01-13T07:27:34.631Z,3.60
2023-01-13T07:30:05.947Z,3.60
2023-01-13T07:32:36.973Z,2.80
2023-01-13T07:35:07.658Z,3.25
2023-01-13T07:37:41.124Z,3.28
2023-01-13T07:40:12.270Z,2.80
2023-01-13T07:43:00.825Z,3.45
2023-01-13T07:45:31.179Z,3.00
2023-01-13T07:48:02.301Z,2.70
2023-01-13T07:50:32.775Z,2.58
2023-01-13T07:53:03.115Z,2.63
2023-01-13T07:55:33.522Z,2.35
2023-01-13T07:58:03.838Z,2.05
2023-01-13T08:00:34.252Z,2.08
2023-01-13T08:03:04.746Z,2.33
2023-01-13T08:05:37.225Z,2.08
2023-01-13T08:08:07.905Z,2.38
2023-01-13T08:10:39.474Z,2.00
2023-01-13T08:13:24.647Z,2.40
2023-01-13T08:16:05.493Z,2.50
2023-01-13T08:18:36.569Z,2.00
2023-01-13T08:21:12.704Z,1.70
2023-01-13T08:23:45.176Z,1.60
2023-01-13T08:26:19.565Z,1.30
2023-01-13T08:28:49.900Z,1.60
2023-01-13T08:31:21.536Z,1.35
2023-01-13T08:33:51.883Z,1.25
2023-01-13T08:36:22.241Z,1.63
2023-01-13T08:38:52.871Z,1.77
2023-01-13T08:41:42.963Z,1.60
2023-01-13T08:44:13.220Z,1.15
2023-01-13T08:46:44.599Z,1.83
2023-01-13T08:49:15.949Z,1.25
2023-01-13T08:51:47.705Z,1.55
2023-01-13T08:54:20.444Z,1.20
2023-01-13T08:56:52.412Z,1.42
2023-01-13T08:59:24.562Z,1.20
2023-01-13T09:01:55.902Z,1.65
2023-01-13T09:04:29.853Z,1.48
2023-01-13T09:07:01.474Z,1.60
2023-01-13T09:09:33.900Z,1.45
2023-01-13T09:12:23.049Z,1.30
2023-01-13T09:15:05.045Z,1.40
2023-01-13T09:17:37.037Z,1.88
2023-01-13T09:20:10.080Z,1.52
2023-01-13T09:22:43.034Z,1.70
2023-01-13T09:25:14.926Z,1.65
2023-01-13T09:27:46.010Z,1.65
2023-01-13T09:30:16.716Z,1.60
2023-01-13T09:32:46.944Z,1.20
2023-01-13T09:35:19.118Z,1.60
2023-01-13T09:37:49.428Z,1.98
2023-01-13T09:40:24.382Z,1.33
2023-01-13T09:43:20.458Z,1.40
2023-01-13T09:46:03.875Z,1.70
2023-01-13T09:48:54.493Z,1.63
2023-01-13T09:51:51.386Z,1.55
2023-01-13T09:54:34.731Z,1.55
2023-01-13T09:57:11.093Z,1.75
2023-01-13T09:59:42.732Z,1.77
2023-01-13T10:02:31.806Z,1.55
2023-01-13T10:05:14.433Z,1.63
2023-01-13T10:08:15.617Z,1.40
2023-01-13T10:10:56.943Z,1.58
2023-01-13T10:13:33.534Z,1.55
2023-01-13T10:16:34.325Z,1.88
2023-01-13T10:19:08.980Z,1.70
2023-01-13T10:22:17.227Z,1.25
2023-01-13T10:24:47.510Z,1.23
2023-01-13T10:27:31.187Z,1.40
2023-01-13T10:30:01.606Z,1.40
2023-01-13T10:32:31.950Z,1.38
2023-01-13T10:35:03.480Z,1.65
2023-01-13T10:37:33.847Z,1.63
2023-01-13T10:40:05.352Z,1.30
2023-01-13T10:42:35.776Z,1.23
2023-01-13T10:45:06.423Z,1.70
2023-01-13T10:47:39.115Z,1.50
2023-01-13T10:50:14.950Z,1.30
2023-01-13T10:53:03.682Z,1.63
2023-01-13T10:55:36.324Z,1.52
2023-01-13T10:58:23.486Z,1.52
2023-01-13T11:01:06.243Z,1.38
2023-01-13T11:03:46.217Z,1.63
2023-01-13T11:06:24.924Z,1.20
2023-01-13T11:08:59.754Z,1.40
2023-01-13T11:11:49.126Z,1.58
2023-01-13T11:14:43.382Z,1.65
2023-01-13T11:17:31.880Z,1.55
2023-01-13T11:20:14.618Z,1.45
2023-01-13T11:22:59.205Z,1.38
2023-01-13T11:25:45.304Z,1.30
2023-01-13T11:28:29.060Z,1.35
2023-01-13T11:31:05.254Z,1.40
2023-01-13T11:33:55.151Z,1.40
2023-01-13T11:36:36.096Z,1.60
2023-01-13T11:39:37.147Z,1.65
2023-01-13T11:42:26.309Z,1.58
2023-01-13T11:45:28.972Z,1.63
2023-01-13T11:48:02.795Z,1.65
2023-01-13T11:50:55.579Z,1.55
2023-01-13T11:53:59.459Z,1.50
2023-01-13T11:57:05.821Z,1.73
2023-01-13T11:59:45.000Z,1.67
2023-01-13T12:02:29.932Z,1.80
2023-01-13T12:05:25.627Z,1.70
2023-01-13T12:08:24.107Z,1.80
2023-01-13T12:11:21.696Z,1.60
2023-01-13T12:14:21.599Z,1.65
2023-01-13T12:16:52.618Z,1.73
2023-01-13T12:19:32.395Z,2.03
2023-01-13T12:22:15.642Z,1.88
2023-01-13T12:24:55.071Z,1.70
2023-01-13T12:27:25.658Z,2.00
2023-01-13T12:30:01.549Z,1.65
2023-01-13T12:32:49.792Z,1.73
2023-01-13T12:35:50.366Z,1.90
2023-01-13T12:38:39.256Z,2.08
2023-01-13T12:41:35.662Z,2.05
2023-01-13T12:44:22.068Z,1.30
2023-01-13T12:46:59.892Z,1.83
2023-01-13T12:49:35.243Z,2.08
2023-01-13T12:52:23.439Z,1.90
2023-01-13T12:54:54.903Z,2.00
2023-01-13T12:57:30.287Z,2.10
2023-01-13T13:00:06.542Z,2.20
2023-01-13T13:02:45.043Z,1.90
2023-01-13T13:05:18.162Z,2.33
2023-01-13T13:07:53.237Z,2.50
2023-01-13T13:10:47.640Z,2.03
2023-01-13T13:13:49.305Z,2.30
2023-01-13T13:16:37.827Z,2.72
2023-01-13T13:19:23.408Z,2.10
2023-01-13T13:22:11.930Z,2.50
2023-01-13T13:24:44.064Z,1.95
2023-01-13T13:27:29.534Z,2.33
2023-01-13T13:30:24.729Z,2.40
2023-01-13T13:33:18.985Z,2.40
2023-01-13T13:36:01.394Z,2.30
2023-01-13T13:39:26.079Z,2.35
2023-01-13T13:42:21.641Z,1.92
2023-01-13T13:45:11.653Z,2.50
2023-01-13T13:47:42.794Z,2.15
2023-01-13T13:50:21.295Z,2.58
2023-01-13T13:53:07.046Z,2.50
2023-01-13T13:55:40.192Z,2.42
2023-01-13T13:58:19.770Z,2.13
2023-01-13T14:00:51.787Z,2.58
2023-01-13T14:03:33.452Z,2.80
2023-01-13T14:06:06.759Z,2.78
2023-01-13T14:08:39.925Z,2.25
2023-01-13T14:11:33.904Z,2.05
2023-01-13T14:14:09.361Z,2.65
2023-01-13T14:16:42.036Z,2.70
2023-01-13T14:19:37.480Z,2.47
2023-01-13T14:22:08.191Z,2.42
2023-01-13T14:24:49.565Z,2.22
2023-01-13T14:27:21.388Z,2.38
2023-01-13T14:29:55.490Z,2.60
2023-01-13T14:32:34.878Z,2.45
2023-01-13T14:35:08.544Z,2.60
2023-01-13T14:37:44.281Z,2.60
2023-01-13T14:40:39.795Z,2.10
2023-01-13T14:43:21.635Z,2.90
2023-01-13T14:46:05.530Z,2.58
2023-01-13T14:48:37.671Z,2.40
2023-01-13T14:51:13.243Z,2.42
2023-01-13T14:53:49.241Z,2.15
2023-01-13T14:56:48.812Z,2.33
2023-01-13T14:59:43.255Z,2.15
2023-01-13T15:02:34.831Z,2.38
2023-01-13T15:05:25.863Z,2.65
2023-01-13T15:08:08.343Z,2.10
2023-01-13T15:10:56.320Z,2.35
2023-01-13T15:13:33.600Z,2.40
2023-01-13T15:16:07.406Z,2.35
2023-01-13T15:18:41.626Z,2.05
2023-01-13T15:21:12.481Z,1.95
2023-01-13T15:23:42.874Z,1.88
2023-01-13T15:26:35.623Z,1.92
2023-01-13T15:29:07.049Z,1.92
2023-01-13T15:31:37.221Z,2.28
2023-01-13T15:34:07.415Z,1.90
2023-01-13T15:36:39.115Z,1.80
2023-01-13T15:39:13.434Z,2.03
2023-01-13T15:42:01.658Z,1.75
2023-01-13T15:44:50.817Z,1.75
2023-01-13T15:47:30.397Z,1.92
2023-01-13T15:50:00.645Z,1.75
2023-01-13T15:52:31.295Z,1.90
2023-01-13T15:55:01.482Z,1.88
2023-01-13T15:57:36.424Z,2.05
2023-01-13T16:00:25.636Z,2.35
2023-01-13T16:02:56.038Z,1.92
2023-01-13T16:05:26.494Z,2.30
2023-01-13T16:07:56.768Z,2.30
2023-01-13T16:10:29.512Z,2.28
2023-01-13T16:12:59.851Z,1.85
2023-01-13T16:15:30.215Z,1.88
2023-01-13T16:18:03.033Z,1.60
2023-01-13T16:20:33.501Z,1.88
2023-01-13T16:23:03.769Z,1.83
2023-01-13T16:25:34.169Z,1.70
2023-01-13T16:28:04.546Z,2.00
2023-01-13T16:30:37.538Z,1.77
2023-01-13T16:33:07.698Z,1.60
2023-01-13T16:35:43.836Z,2.10
2023-01-13T16:38:31.086Z,1.70
2023-01-13T16:41:01.617Z,2.00
2023-01-13T16:43:32.275Z,1.70
2023-01-13T16:46:03.002Z,1.83
2023-01-13T16:48:33.379Z,1.52
2023-01-13T16:51:03.635Z,1.70
2023-01-13T16:53:33.826Z,1.77
2023-01-13T16:56:04.000Z,1.98
2023-01-13T16:58:34.297Z,1.70
2023-01-13T17:01:06.545Z,1.77
2023-01-13T17:03:37.547Z,2.10
2023-01-13T17:06:09.254Z,1.70
2023-01-13T17:08:39.521Z,1.90
2023-01-13T17:11:09.695Z,1.80
2023-01-13T17:13:40.207Z,2.20
2023-01-13T17:16:22.695Z,1.52
2023-01-13T17:18:57.663Z,1.90
2023-01-13T17:21:28.048Z,1.67
2023-01-13T17:23:58.232Z,1.42
2023-01-13T17:26:38.889Z,1.73
2023-01-13T17:29:13.997Z,1.60
2023-01-13T17:31:44.681Z,1.85
2023-01-13T17:34:16.097Z,1.70
2023-01-13T17:36:48.438Z,1.75
2023-01-13T17:39:27.432Z,1.60
2023-01-13T17:42:00.527Z,1.45
2023-01-13T17:44:30.759Z,1.73
2023-01-13T17:47:00.935Z,2.20
2023-01-13T17:49:31.288Z,1.60
2023-01-13T17:52:01.644Z,1.88
2023-01-13T17:54:31.865Z,1.70
2023-01-13T17:57:02.854Z,1.60
2023-01-13T17:59:33.349Z,1.70
2023-01-13T18:02:03.831Z,1.50
2023-01-13T18:04:34.294Z,1.80
2023-01-13T18:07:04.655Z,1.98
2023-01-13T18:09:35.634Z,1.48
2023-01-13T18:12:06.271Z,1.83
2023-01-13T18:14:37.384Z,1.75
2023-01-13T18:17:07.651Z,1.88
2023-01-13T18:19:55.951Z,1.48
2023-01-13T18:22:43.887Z,1.50
2023-01-13T18:25:35.184Z,2.10
2023-01-13T18:28:06.370Z,1.50
2023-01-13T18:30:37.012Z,1.58
2023-01-13T18:33:07.300Z,1.80
2023-01-13T18:35:39.994Z,1.63
2023-01-13T18:38:13.405Z,1.73
2023-01-13T18:40:46.815Z,2.10
2023-01-13T18:43:17.106Z,1.95
2023-01-13T18:45:51.898Z,1.65
2023-01-13T18:48:22.130Z,1.80
2023-01-13T18:50:52.363Z,1.55
2023-01-13T18:53:22.572Z,1.73
2023-01-13T18:55:52.795Z,1.42
2023-01-13T18:58:23.348Z,1.65
2023-01-13T19:01:02.235Z,1.52
2023-01-13T19:03:32.525Z,1.48
2023-01-13T19:06:09.086Z,1.70
2023-01-13T19:08:39.561Z,1.83
2023-01-13T19:11:10.410Z,1.70
2023-01-13T19:13:40.682Z,1.50
2023-01-13T19:16:11.248Z,1.00
2023-01-13T19:18:41.520Z,1.08
2023-01-13T19:21:11.928Z,1.20
2023-01-13T19:23:42.288Z,1.27
2023-01-13T19:26:14.581Z,0.85
2023-01-13T19:28:44.766Z,1.33
2023-01-13T19:31:17.390Z,1.15
2023-01-13T19:33:47.678Z,1.42
2023-01-13T19:36:18.243Z,1.08
2023-01-13T19:38:48.493Z,1.80
2023-01-13T19:41:39.698Z,1.90
2023-01-13T19:44:33.111Z,1.60
2023-01-13T19:47:05.435Z,1.27
2023-01-13T19:49:36.464Z,1.50
2023-01-13T19:52:07.233Z,1.60
2023-01-13T19:54:37.768Z,2.22
2023-01-13T19:57:08.607Z,1.23
2023-01-13T19:59:42.479Z,1.60
2023-01-13T20:02:29.699Z,1.77
2023-01-13T20:05:02.544Z,1.55
2023-01-13T20:07:35.491Z,1.38
2023-01-13T20:10:06.856Z,1.45
2023-01-13T20:12:38.208Z,1.30
2023-01-13T20:15:08.903Z,1.20
2023-01-13T20:17:39.416Z,1.50
2023-01-13T20:20:10.646Z,1.45
2023-01-13T20:22:43.965Z,1.27
2023-01-13T20:25:18.266Z,1.30
2023-01-13T20:27:49.923Z,1.52
2023-01-13T20:30:20.185Z,1.10
2023-01-13T20:32:50.511Z,1.30
2023-01-13T20:35:20.811Z,1.25
2023-01-13T20:37:51.040Z,1.20
2023-01-13T20:40:21.362Z,1.33
2023-01-13T20:42:51.811Z,1.30
2023-01-13T20:45:24.159Z,1.67
2023-01-13T20:47:55.849Z,1.05
2023-01-13T20:50:26.106Z,1.42
2023-01-13T20:52:56.483Z,1.38
2023-01-13T20:55:26.681Z,1.13
2023-01-13T20:57:57.123Z,0.90
2023-01-13T21:00:29.985Z,1.30
2023-01-13T21:03:01.812Z,1.20
2023-01-13T21:05:32.106Z,1.10
2023-01-13T21:08:02.793Z,1.40
2023-01-13T21:10:33.405Z,1.20
2023-01-13T21:13:21.851Z,1.55
2023-01-13T21:15:52.182Z,1.40
2023-01-13T21:18:40.231Z,1.25
2023-01-13T21:21:16.345Z,1.35
2023-01-13T21:23:49.233Z,1.20
2023-01-13T21:26:21.166Z,1.08
2023-01-13T21:28:52.869Z,0.90
2023-01-13T21:31:23.090Z,1.13
2023-01-13T21:34:01.325Z,1.30
2023-01-13T21:36:31.542Z,1.00
2023-01-13T21:39:02.428Z,0.98
2023-01-13T21:41:50.647Z,1.27
2023-01-13T21:44:41.218Z,0.90
2023-01-13T21:47:39.854Z,1.13
2023-01-13T21:50:12.896Z,0.93
2023-01-13T21:52:45.926Z,1.08
2023-01-13T21:55:25.387Z,1.02
2023-01-13T21:58:01.140Z,1.13
2023-01-13T22:00:34.914Z,1.05
2023-01-13T22:03:09.996Z,1.25
2023-01-13T22:05:40.915Z,1.10
2023-01-13T22:08:14.614Z,1.30
2023-01-13T22:11:01.019Z,1.35
2023-01-13T22:13:49.051Z,0.82
2023-01-13T22:16:19.975Z,1.13
2023-01-13T22:18:50.162Z,0.90
2023-01-13T22:21:20.702Z,0.98
2023-01-13T22:23:50.913Z,1.45
2023-01-13T22:26:21.149Z,0.88
2023-01-13T22:28:51.391Z,1.02
2023-01-13T22:31:25.359Z,0.90
2023-01-13T22:33:58.857Z,0.85
2023-01-13T22:36:29.185Z,1.00
2023-01-13T22:39:01.929Z,0.70
2023-01-13T22:41:32.745Z,0.93
2023-01-13T22:44:03.074Z,1.25
2023-01-13T22:46:33.370Z,0.90
2023-01-13T22:49:03.556Z,0.73
2023-01-13T22:51:33.776Z,1.40
2023-01-13T22:54:04.028Z,0.98
2023-01-13T22:56:34.684Z,0.93
2023-01-13T22:59:06.916Z,1.00
2023-01-13T23:01:38.045Z,0.70
2023-01-13T23:04:09.038Z,1.00
2023-01-13T23:06:39.291Z,1.10
2023-01-13T23:09:11.574Z,1.35
2023-01-13T23:11:43.383Z,1.08
2023-01-13T23:14:15.239Z,1.20
2023-01-13T23:16:45.679Z,0.63
2023-01-13T23:19:16.319Z,0.77
2023-01-13T23:21:46.501Z,0.95
2023-01-13T23:24:16.720Z,0.95
2023-01-13T23:26:47.007Z,0.75
2023-01-13T23:29:17.187Z,1.08
2023-01-13T23:31:47.393Z,0.90
2023-01-13T23:34:17.891Z,0.95
2023-01-13T23:36:48.258Z,0.75
2023-01-13T23:39:18.439Z,1.00
2023-01-13T23:41:48.650Z,0.90
2023-01-13T23:44:19.116Z,0.80
2023-01-13T23:46:49.481Z,1.10
2023-01-13T23:49:19.680Z,1.00
2023-01-13T23:51:53.259Z,0.90
2023-01-13T23:54:23.853Z,1.13
2023-01-13T23:56:56.948Z,1.15
2023-01-13T23:59:27.230Z,1.20
